Newbrook, Canada
Current Conditions -  °F | °C
As of 9:00 AM on Saturday 25 Oct 2014 (Local Time) from CYED Reporting Station
Clear Clear  
Wind Chill: 28°   Ceiling: Unl
Heat Index: 28°   Visibility: 9mi
Dew Point: 21°   Wind: 0mph
Humidity: 74%   Direction: NA
Pressure: 29.97"   Gusts: NA
Location:  54.33°N, 112.95°W
Report Text: CYED 251500Z AUTO 00000KT 9SM CLR M02/M06 A2997 RMK SLP180
Loading
Personal Weather Stations






























Interactive Weather Map
Tropical Storm Tracking
New forecast layout! Learn more

10-Day Weather Forecast

Advertisements
Track Severe Weather on mobile